sensor_id;sensor_type;location;lat;lon;timestamp;P1;durP1;ratioP1;P2;durP2;ratioP2
9771;SDS011;4925;52.588;13.370;2023-05-24T00:01:46;10.93;;;3.00;;
9771;SDS011;4925;52.588;13.370;2023-05-24T00:04:12;8.20;;;2.70;;
9771;SDS011;4925;52.588;13.370;2023-05-24T00:06:39;6.57;;;2.90;;
9771;SDS011;4925;52.588;13.370;2023-05-24T00:09:05;12.40;;;3.00;;
9771;SDS011;4925;52.588;13.370;2023-05-24T00:11:31;9.77;;;2.70;;
9771;SDS011;4925;52.588;13.370;2023-05-24T00:13:57;11.47;;;3.17;;
9771;SDS011;4925;52.588;13.370;2023-05-24T00:16:23;10.23;;;2.77;;
9771;SDS011;4925;52.588;13.370;2023-05-24T00:18:48;9.83;;;3.23;;
9771;SDS011;4925;52.588;13.370;2023-05-24T00:21:14;10.10;;;2.30;;
9771;SDS011;4925;52.588;13.370;2023-05-24T00:23:40;9.27;;;2.40;;
9771;SDS011;4925;52.588;13.370;2023-05-24T00:26:06;8.37;;;2.50;;
9771;SDS011;4925;52.588;13.370;2023-05-24T00:28:32;5.57;;;2.50;;
9771;SDS011;4925;52.588;13.370;2023-05-24T00:30:58;9.47;;;2.70;;
9771;SDS011;4925;52.588;13.370;2023-05-24T00:33:26;7.37;;;2.50;;
9771;SDS011;4925;52.588;13.370;2023-05-24T00:35:52;14.03;;;3.50;;
9771;SDS011;4925;52.588;13.370;2023-05-24T00:38:21;9.00;;;3.03;;
9771;SDS011;4925;52.588;13.370;2023-05-24T00:40:48;7.13;;;2.17;;
9771;SDS011;4925;52.588;13.370;2023-05-24T00:43:14;9.13;;;2.27;;
9771;SDS011;4925;52.588;13.370;2023-05-24T00:45:39;8.70;;;2.47;;
9771;SDS011;4925;52.588;13.370;2023-05-24T00:48:05;13.57;;;2.63;;
9771;SDS011;4925;52.588;13.370;2023-05-24T00:50:32;10.03;;;2.30;;
9771;SDS011;4925;52.588;13.370;2023-05-24T00:52:59;7.27;;;2.60;;
9771;SDS011;4925;52.588;13.370;2023-05-24T00:55:28;11.07;;;2.73;;
9771;SDS011;4925;52.588;13.370;2023-05-24T00:57:55;8.80;;;2.23;;
9771;SDS011;4925;52.588;13.370;2023-05-24T01:00:21;7.93;;;3.13;;
9771;SDS011;4925;52.588;13.370;2023-05-24T01:02:48;12.67;;;2.43;;
9771;SDS011;4925;52.588;13.370;2023-05-24T01:05:15;6.27;;;2.33;;
9771;SDS011;4925;52.588;13.370;2023-05-24T01:10:37;9.67;;;2.43;;
9771;SDS011;4925;52.588;13.370;2023-05-24T01:18:15;8.50;;;2.03;;
9771;SDS011;4925;52.588;13.370;2023-05-24T01:23:51;6.57;;;2.13;;
9771;SDS011;4925;52.588;13.370;2023-05-24T01:29:31;4.37;;;1.80;;
9771;SDS011;4925;52.588;13.370;2023-05-24T01:31:58;8.13;;;2.13;;
9771;SDS011;4925;52.588;13.370;2023-05-24T01:34:25;11.17;;;2.60;;
9771;SDS011;4925;52.588;13.370;2023-05-24T01:36:50;10.43;;;2.77;;
9771;SDS011;4925;52.588;13.370;2023-05-24T01:39:16;10.90;;;2.80;;
9771;SDS011;4925;52.588;13.370;2023-05-24T01:50:15;7.20;;;1.97;;
9771;SDS011;4925;52.588;13.370;2023-05-24T01:52:41;10.13;;;2.73;;
9771;SDS011;4925;52.588;13.370;2023-05-24T01:55:10;9.33;;;2.10;;
9771;SDS011;4925;52.588;13.370;2023-05-24T01:57:39;12.67;;;2.60;;
9771;SDS011;4925;52.588;13.370;2023-05-24T02:00:08;7.17;;;2.23;;
9771;SDS011;4925;52.588;13.370;2023-05-24T02:02:35;7.97;;;2.60;;
9771;SDS011;4925;52.588;13.370;2023-05-24T02:05:02;6.47;;;2.10;;
9771;SDS011;4925;52.588;13.370;2023-05-24T02:07:28;10.37;;;2.30;;
9771;SDS011;4925;52.588;13.370;2023-05-24T02:09:53;8.57;;;2.10;;
9771;SDS011;4925;52.588;13.370;2023-05-24T02:12:19;7.93;;;2.30;;
9771;SDS011;4925;52.588;13.370;2023-05-24T02:14:45;10.17;;;2.57;;
9771;SDS011;4925;52.588;13.370;2023-05-24T02:17:10;13.87;;;2.83;;
9771;SDS011;4925;52.588;13.370;2023-05-24T02:19:36;10.30;;;2.80;;
9771;SDS011;4925;52.588;13.370;2023-05-24T02:22:02;12.53;;;2.73;;
9771;SDS011;4925;52.588;13.370;2023-05-24T02:24:28;9.97;;;2.47;;
9771;SDS011;4925;52.588;13.370;2023-05-24T02:26:54;13.13;;;2.87;;
9771;SDS011;4925;52.588;13.370;2023-05-24T02:29:20;6.93;;;2.67;;
9771;SDS011;4925;52.588;13.370;2023-05-24T02:31:46;13.53;;;2.40;;
9771;SDS011;4925;52.588;13.370;2023-05-24T02:34:14;8.50;;;2.30;;
9771;SDS011;4925;52.588;13.370;2023-05-24T02:36:40;12.77;;;2.47;;
9771;SDS011;4925;52.588;13.370;2023-05-24T02:39:06;9.57;;;2.33;;
9771;SDS011;4925;52.588;13.370;2023-05-24T02:41:33;8.70;;;2.43;;
9771;SDS011;4925;52.588;13.370;2023-05-24T02:43:59;11.60;;;2.43;;
9771;SDS011;4925;52.588;13.370;2023-05-24T02:46:25;9.87;;;2.30;;
9771;SDS011;4925;52.588;13.370;2023-05-24T02:48:50;8.93;;;2.33;;
9771;SDS011;4925;52.588;13.370;2023-05-24T02:51:16;7.97;;;2.40;;
9771;SDS011;4925;52.588;13.370;2023-05-24T02:53:41;13.83;;;2.70;;
9771;SDS011;4925;52.588;13.370;2023-05-24T02:56:07;9.30;;;2.33;;
9771;SDS011;4925;52.588;13.370;2023-05-24T02:58:33;9.87;;;2.43;;
9771;SDS011;4925;52.588;13.370;2023-05-24T03:01:04;9.50;;;2.60;;
9771;SDS011;4925;52.588;13.370;2023-05-24T03:03:30;10.97;;;2.50;;
9771;SDS011;4925;52.588;13.370;2023-05-24T03:05:55;12.47;;;2.63;;
9771;SDS011;4925;52.588;13.370;2023-05-24T03:08:21;12.33;;;2.63;;
9771;SDS011;4925;52.588;13.370;2023-05-24T03:10:47;15.13;;;2.67;;
9771;SDS011;4925;52.588;13.370;2023-05-24T03:13:13;16.33;;;2.90;;
9771;SDS011;4925;52.588;13.370;2023-05-24T03:15:38;8.47;;;2.67;;
9771;SDS011;4925;52.588;13.370;2023-05-24T03:18:04;14.00;;;3.37;;
9771;SDS011;4925;52.588;13.370;2023-05-24T03:20:30;11.70;;;2.37;;
9771;SDS011;4925;52.588;13.370;2023-05-24T03:22:57;9.63;;;2.80;;
9771;SDS011;4925;52.588;13.370;2023-05-24T03:25:23;8.00;;;2.87;;
9771;SDS011;4925;52.588;13.370;2023-05-24T03:27:49;9.77;;;2.80;;
9771;SDS011;4925;52.588;13.370;2023-05-24T03:30:14;9.87;;;3.37;;
9771;SDS011;4925;52.588;13.370;2023-05-24T03:32:40;16.67;;;3.20;;
9771;SDS011;4925;52.588;13.370;2023-05-24T03:35:06;10.07;;;2.70;;
9771;SDS011;4925;52.588;13.370;2023-05-24T03:37:31;10.87;;;3.00;;
9771;SDS011;4925;52.588;13.370;2023-05-24T03:39:57;11.60;;;2.60;;
9771;SDS011;4925;52.588;13.370;2023-05-24T03:42:23;13.10;;;3.00;;
9771;SDS011;4925;52.588;13.370;2023-05-24T03:44:48;9.10;;;2.57;;
9771;SDS011;4925;52.588;13.370;2023-05-24T03:47:14;10.57;;;3.10;;
9771;SDS011;4925;52.588;13.370;2023-05-24T03:49:40;11.63;;;3.00;;
9771;SDS011;4925;52.588;13.370;2023-05-24T03:52:06;9.33;;;2.70;;
9771;SDS011;4925;52.588;13.370;2023-05-24T03:54:31;9.30;;;2.87;;
9771;SDS011;4925;52.588;13.370;2023-05-24T03:56:57;9.27;;;2.90;;
9771;SDS011;4925;52.588;13.370;2023-05-24T03:59:23;11.30;;;3.27;;
9771;SDS011;4925;52.588;13.370;2023-05-24T04:01:48;12.27;;;3.00;;
9771;SDS011;4925;52.588;13.370;2023-05-24T04:04:14;9.37;;;3.20;;
9771;SDS011;4925;52.588;13.370;2023-05-24T04:06:40;10.73;;;2.83;;
9771;SDS011;4925;52.588;13.370;2023-05-24T04:09:06;9.53;;;3.03;;
9771;SDS011;4925;52.588;13.370;2023-05-24T04:11:31;10.77;;;2.90;;
9771;SDS011;4925;52.588;13.370;2023-05-24T04:13:57;10.73;;;3.40;;
9771;SDS011;4925;52.588;13.370;2023-05-24T04:16:27;13.63;;;2.77;;
9771;SDS011;4925;52.588;13.370;2023-05-24T04:18:55;17.50;;;2.97;;
9771;SDS011;4925;52.588;13.370;2023-05-24T04:21:21;10.10;;;2.97;;
9771;SDS011;4925;52.588;13.370;2023-05-24T04:23:48;12.33;;;3.10;;
9771;SDS011;4925;52.588;13.370;2023-05-24T04:26:13;12.20;;;2.90;;
9771;SDS011;4925;52.588;13.370;2023-05-24T04:28:39;13.47;;;3.07;;
9771;SDS011;4925;52.588;13.370;2023-05-24T04:31:06;13.23;;;3.07;;
9771;SDS011;4925;52.588;13.370;2023-05-24T04:33:33;14.50;;;3.03;;
9771;SDS011;4925;52.588;13.370;2023-05-24T04:35:59;16.33;;;3.07;;
9771;SDS011;4925;52.588;13.370;2023-05-24T04:38:26;11.70;;;3.60;;
9771;SDS011;4925;52.588;13.370;2023-05-24T04:40:56;13.97;;;3.63;;
9771;SDS011;4925;52.588;13.370;2023-05-24T04:43:23;9.67;;;3.83;;
9771;SDS011;4925;52.588;13.370;2023-05-24T04:45:50;10.97;;;3.63;;
9771;SDS011;4925;52.588;13.370;2023-05-24T04:48:18;9.40;;;2.93;;
9771;SDS011;4925;52.588;13.370;2023-05-24T04:50:45;9.50;;;3.00;;
9771;SDS011;4925;52.588;13.370;2023-05-24T04:53:12;13.50;;;2.63;;
9771;SDS011;4925;52.588;13.370;2023-05-24T04:55:38;7.93;;;2.67;;
9771;SDS011;4925;52.588;13.370;2023-05-24T04:58:05;12.23;;;3.50;;
9771;SDS011;4925;52.588;13.370;2023-05-24T05:00:31;12.00;;;2.77;;
9771;SDS011;4925;52.588;13.370;2023-05-24T05:02:57;12.53;;;3.30;;
9771;SDS011;4925;52.588;13.370;2023-05-24T05:05:22;15.93;;;3.90;;
9771;SDS011;4925;52.588;13.370;2023-05-24T05:07:48;13.67;;;3.63;;
9771;SDS011;4925;52.588;13.370;2023-05-24T05:10:14;14.17;;;4.27;;
9771;SDS011;4925;52.588;13.370;2023-05-24T05:12:40;21.27;;;4.60;;
9771;SDS011;4925;52.588;13.370;2023-05-24T05:15:06;13.50;;;3.70;;
9771;SDS011;4925;52.588;13.370;2023-05-24T05:17:32;20.17;;;6.40;;
9771;SDS011;4925;52.588;13.370;2023-05-24T05:19:58;32.73;;;12.00;;
9771;SDS011;4925;52.588;13.370;2023-05-24T05:22:24;14.37;;;5.43;;
9771;SDS011;4925;52.588;13.370;2023-05-24T05:24:50;14.97;;;4.93;;
9771;SDS011;4925;52.588;13.370;2023-05-24T05:27:17;16.33;;;4.07;;
9771;SDS011;4925;52.588;13.370;2023-05-24T05:29:42;14.10;;;4.53;;
9771;SDS011;4925;52.588;13.370;2023-05-24T05:32:08;21.37;;;4.60;;
9771;SDS011;4925;52.588;13.370;2023-05-24T05:34:34;12.27;;;3.60;;
9771;SDS011;4925;52.588;13.370;2023-05-24T05:36:59;11.37;;;3.00;;
9771;SDS011;4925;52.588;13.370;2023-05-24T05:39:25;16.67;;;4.40;;
9771;SDS011;4925;52.588;13.370;2023-05-24T05:41:51;11.67;;;3.90;;
9771;SDS011;4925;52.588;13.370;2023-05-24T05:44:17;12.83;;;4.13;;
9771;SDS011;4925;52.588;13.370;2023-05-24T05:46:42;13.07;;;4.47;;
9771;SDS011;4925;52.588;13.370;2023-05-24T05:49:10;20.87;;;4.70;;
9771;SDS011;4925;52.588;13.370;2023-05-24T05:51:36;11.97;;;4.17;;
9771;SDS011;4925;52.588;13.370;2023-05-24T05:54:03;13.93;;;4.60;;
9771;SDS011;4925;52.588;13.370;2023-05-24T05:56:29;15.13;;;4.97;;
9771;SDS011;4925;52.588;13.370;2023-05-24T05:58:55;18.33;;;4.70;;
9771;SDS011;4925;52.588;13.370;2023-05-24T06:01:21;24.10;;;4.47;;
9771;SDS011;4925;52.588;13.370;2023-05-24T06:03:50;20.90;;;4.50;;
9771;SDS011;4925;52.588;13.370;2023-05-24T06:06:16;14.23;;;3.90;;
9771;SDS011;4925;52.588;13.370;2023-05-24T06:08:42;15.30;;;4.53;;
9771;SDS011;4925;52.588;13.370;2023-05-24T06:11:07;14.17;;;4.27;;
9771;SDS011;4925;52.588;13.370;2023-05-24T06:13:33;16.30;;;4.10;;
9771;SDS011;4925;52.588;13.370;2023-05-24T06:15:59;12.10;;;3.63;;
9771;SDS011;4925;52.588;13.370;2023-05-24T06:18:25;20.17;;;4.87;;
9771;SDS011;4925;52.588;13.370;2023-05-24T06:20:51;14.37;;;3.93;;
9771;SDS011;4925;52.588;13.370;2023-05-24T06:23:17;15.27;;;4.50;;
9771;SDS011;4925;52.588;13.370;2023-05-24T06:25:42;15.20;;;4.13;;
9771;SDS011;4925;52.588;13.370;2023-05-24T06:28:08;14.20;;;3.87;;
9771;SDS011;4925;52.588;13.370;2023-05-24T06:30:34;15.87;;;4.43;;
9771;SDS011;4925;52.588;13.370;2023-05-24T06:33:00;12.37;;;3.87;;
9771;SDS011;4925;52.588;13.370;2023-05-24T06:35:26;12.43;;;3.63;;
9771;SDS011;4925;52.588;13.370;2023-05-24T06:37:52;15.23;;;3.63;;
9771;SDS011;4925;52.588;13.370;2023-05-24T06:40:18;14.57;;;4.60;;
9771;SDS011;4925;52.588;13.370;2023-05-24T06:42:43;19.40;;;4.83;;
9771;SDS011;4925;52.588;13.370;2023-05-24T06:45:09;16.97;;;4.13;;
9771;SDS011;4925;52.588;13.370;2023-05-24T06:47:35;17.57;;;4.33;;
9771;SDS011;4925;52.588;13.370;2023-05-24T06:50:01;19.93;;;5.03;;
9771;SDS011;4925;52.588;13.370;2023-05-24T06:52:28;14.40;;;4.40;;
9771;SDS011;4925;52.588;13.370;2023-05-24T06:54:54;19.13;;;4.73;;
9771;SDS011;4925;52.588;13.370;2023-05-24T06:57:20;21.33;;;5.37;;
9771;SDS011;4925;52.588;13.370;2023-05-24T06:59:46;14.57;;;4.30;;
9771;SDS011;4925;52.588;13.370;2023-05-24T07:02:11;21.13;;;4.43;;
9771;SDS011;4925;52.588;13.370;2023-05-24T07:04:37;21.97;;;5.33;;
9771;SDS011;4925;52.588;13.370;2023-05-24T07:07:05;15.30;;;4.73;;
9771;SDS011;4925;52.588;13.370;2023-05-24T07:09:32;12.50;;;4.47;;
9771;SDS011;4925;52.588;13.370;2023-05-24T07:11:57;16.03;;;4.60;;
9771;SDS011;4925;52.588;13.370;2023-05-24T07:14:23;22.50;;;5.17;;
9771;SDS011;4925;52.588;13.370;2023-05-24T07:16:51;11.87;;;4.27;;
9771;SDS011;4925;52.588;13.370;2023-05-24T07:19:19;21.67;;;7.63;;
9771;SDS011;4925;52.588;13.370;2023-05-24T07:21:46;26.60;;;15.10;;
9771;SDS011;4925;52.588;13.370;2023-05-24T07:24:11;15.70;;;6.70;;
9771;SDS011;4925;52.588;13.370;2023-05-24T07:26:37;22.63;;;5.33;;
9771;SDS011;4925;52.588;13.370;2023-05-24T07:29:03;18.63;;;5.43;;
9771;SDS011;4925;52.588;13.370;2023-05-24T07:31:29;14.57;;;4.30;;
9771;SDS011;4925;52.588;13.370;2023-05-24T07:33:56;18.43;;;4.93;;
9771;SDS011;4925;52.588;13.370;2023-05-24T07:36:22;19.07;;;4.10;;
9771;SDS011;4925;52.588;13.370;2023-05-24T07:38:49;14.70;;;4.70;;
9771;SDS011;4925;52.588;13.370;2023-05-24T07:41:15;17.23;;;4.57;;
9771;SDS011;4925;52.588;13.370;2023-05-24T07:43:41;17.23;;;4.80;;
9771;SDS011;4925;52.588;13.370;2023-05-24T07:46:07;17.40;;;4.77;;
9771;SDS011;4925;52.588;13.370;2023-05-24T07:48:34;14.37;;;5.13;;
9771;SDS011;4925;52.588;13.370;2023-05-24T07:50:59;20.33;;;5.00;;
9771;SDS011;4925;52.588;13.370;2023-05-24T07:53:25;15.33;;;4.73;;
9771;SDS011;4925;52.588;13.370;2023-05-24T07:55:51;17.93;;;4.33;;
9771;SDS011;4925;52.588;13.370;2023-05-24T07:58:17;16.33;;;4.23;;
9771;SDS011;4925;52.588;13.370;2023-05-24T08:00:42;18.97;;;4.53;;
9771;SDS011;4925;52.588;13.370;2023-05-24T08:03:08;21.30;;;4.40;;
9771;SDS011;4925;52.588;13.370;2023-05-24T08:05:37;14.40;;;4.17;;
9771;SDS011;4925;52.588;13.370;2023-05-24T08:08:03;15.00;;;4.60;;
9771;SDS011;4925;52.588;13.370;2023-05-24T08:10:28;16.47;;;4.77;;
9771;SDS011;4925;52.588;13.370;2023-05-24T08:12:54;16.83;;;5.87;;
9771;SDS011;4925;52.588;13.370;2023-05-24T08:15:20;14.10;;;4.10;;
9771;SDS011;4925;52.588;13.370;2023-05-24T08:17:47;14.30;;;4.00;;
9771;SDS011;4925;52.588;13.370;2023-05-24T08:20:12;16.07;;;3.90;;
9771;SDS011;4925;52.588;13.370;2023-05-24T08:22:39;11.50;;;3.70;;
9771;SDS011;4925;52.588;13.370;2023-05-24T08:25:05;15.13;;;4.27;;
9771;SDS011;4925;52.588;13.370;2023-05-24T08:27:31;17.50;;;4.67;;
9771;SDS011;4925;52.588;13.370;2023-05-24T08:29:57;13.83;;;4.23;;
9771;SDS011;4925;52.588;13.370;2023-05-24T08:32:23;16.70;;;5.30;;
9771;SDS011;4925;52.588;13.370;2023-05-24T08:34:48;13.50;;;4.17;;
9771;SDS011;4925;52.588;13.370;2023-05-24T08:37:14;15.40;;;4.27;;
9771;SDS011;4925;52.588;13.370;2023-05-24T08:39:43;15.87;;;4.07;;
9771;SDS011;4925;52.588;13.370;2023-05-24T08:42:09;12.90;;;3.77;;
9771;SDS011;4925;52.588;13.370;2023-05-24T08:44:40;12.40;;;3.60;;
9771;SDS011;4925;52.588;13.370;2023-05-24T08:47:17;11.23;;;3.00;;
9771;SDS011;4925;52.588;13.370;2023-05-24T08:49:46;12.33;;;4.30;;
9771;SDS011;4925;52.588;13.370;2023-05-24T08:52:12;10.00;;;3.43;;
9771;SDS011;4925;52.588;13.370;2023-05-24T08:54:38;12.63;;;4.17;;
9771;SDS011;4925;52.588;13.370;2023-05-24T08:57:05;13.13;;;3.83;;
9771;SDS011;4925;52.588;13.370;2023-05-24T08:59:31;11.13;;;4.13;;
9771;SDS011;4925;52.588;13.370;2023-05-24T09:01:57;12.07;;;3.90;;
9771;SDS011;4925;52.588;13.370;2023-05-24T09:04:25;18.00;;;4.53;;
9771;SDS011;4925;52.588;13.370;2023-05-24T09:06:52;17.27;;;4.23;;
9771;SDS011;4925;52.588;13.370;2023-05-24T09:09:20;13.27;;;4.00;;
9771;SDS011;4925;52.588;13.370;2023-05-24T09:11:46;14.53;;;3.93;;
9771;SDS011;4925;52.588;13.370;2023-05-24T09:14:15;10.97;;;3.63;;
9771;SDS011;4925;52.588;13.370;2023-05-24T09:16:42;11.77;;;4.30;;
9771;SDS011;4925;52.588;13.370;2023-05-24T09:19:08;12.77;;;3.77;;
9771;SDS011;4925;52.588;13.370;2023-05-24T09:21:34;13.43;;;4.50;;
9771;SDS011;4925;52.588;13.370;2023-05-24T09:24:01;15.30;;;3.90;;
9771;SDS011;4925;52.588;13.370;2023-05-24T09:26:28;8.93;;;3.13;;
9771;SDS011;4925;52.588;13.370;2023-05-24T09:28:54;13.30;;;3.97;;
9771;SDS011;4925;52.588;13.370;2023-05-24T09:31:30;16.00;;;3.50;;
9771;SDS011;4925;52.588;13.370;2023-05-24T09:33:57;13.03;;;3.40;;
9771;SDS011;4925;52.588;13.370;2023-05-24T09:36:23;12.23;;;3.53;;
9771;SDS011;4925;52.588;13.370;2023-05-24T09:39:00;8.03;;;2.90;;
9771;SDS011;4925;52.588;13.370;2023-05-24T09:41:33;12.73;;;4.00;;
9771;SDS011;4925;52.588;13.370;2023-05-24T09:44:00;11.33;;;3.53;;
9771;SDS011;4925;52.588;13.370;2023-05-24T09:46:27;9.93;;;3.13;;
9771;SDS011;4925;52.588;13.370;2023-05-24T09:48:57;8.27;;;3.47;;
9771;SDS011;4925;52.588;13.370;2023-05-24T09:51:23;7.70;;;3.60;;
9771;SDS011;4925;52.588;13.370;2023-05-24T09:53:50;11.20;;;3.93;;
9771;SDS011;4925;52.588;13.370;2023-05-24T09:56:21;8.57;;;3.20;;
9771;SDS011;4925;52.588;13.370;2023-05-24T09:58:50;12.10;;;3.63;;
9771;SDS011;4925;52.588;13.370;2023-05-24T10:01:16;13.70;;;3.97;;
9771;SDS011;4925;52.588;13.370;2023-05-24T10:03:56;13.10;;;3.73;;
9771;SDS011;4925;52.588;13.370;2023-05-24T10:06:22;11.80;;;4.13;;
9771;SDS011;4925;52.588;13.370;2023-05-24T10:08:51;9.20;;;3.50;;
9771;SDS011;4925;52.588;13.370;2023-05-24T10:11:21;10.70;;;3.70;;
9771;SDS011;4925;52.588;13.370;2023-05-24T10:13:47;8.20;;;3.70;;
9771;SDS011;4925;52.588;13.370;2023-05-24T10:16:13;8.33;;;3.40;;
9771;SDS011;4925;52.588;13.370;2023-05-24T10:18:40;7.63;;;3.17;;
9771;SDS011;4925;52.588;13.370;2023-05-24T10:21:06;7.80;;;2.63;;
9771;SDS011;4925;52.588;13.370;2023-05-24T10:23:33;6.60;;;2.73;;
9771;SDS011;4925;52.588;13.370;2023-05-24T10:28:33;5.50;;;2.67;;
9771;SDS011;4925;52.588;13.370;2023-05-24T10:33:55;13.07;;;3.50;;
9771;SDS011;4925;52.588;13.370;2023-05-24T10:36:23;10.23;;;3.27;;
9771;SDS011;4925;52.588;13.370;2023-05-24T10:38:53;7.03;;;2.90;;
9771;SDS011;4925;52.588;13.370;2023-05-24T10:41:20;7.80;;;2.93;;
9771;SDS011;4925;52.588;13.370;2023-05-24T10:43:46;12.47;;;3.83;;
9771;SDS011;4925;52.588;13.370;2023-05-24T10:46:13;12.57;;;3.40;;
9771;SDS011;4925;52.588;13.370;2023-05-24T10:48:42;8.07;;;2.83;;
9771;SDS011;4925;52.588;13.370;2023-05-24T10:54:32;10.40;;;2.60;;
9771;SDS011;4925;52.588;13.370;2023-05-24T10:56:51;11.77;;;2.90;;
9771;SDS011;4925;52.588;13.370;2023-05-24T10:59:28;11.33;;;2.83;;
9771;SDS011;4925;52.588;13.370;2023-05-24T11:02:07;6.83;;;2.80;;
9771;SDS011;4925;52.588;13.370;2023-05-24T11:04:37;6.87;;;2.70;;
9771;SDS011;4925;52.588;13.370;2023-05-24T11:07:04;3.87;;;2.60;;
9771;SDS011;4925;52.588;13.370;2023-05-24T11:09:38;6.77;;;2.87;;
9771;SDS011;4925;52.588;13.370;2023-05-24T11:12:12;7.53;;;2.53;;
9771;SDS011;4925;52.588;13.370;2023-05-24T11:14:41;7.87;;;2.53;;
9771;SDS011;4925;52.588;13.370;2023-05-24T11:17:13;6.73;;;2.60;;
9771;SDS011;4925;52.588;13.370;2023-05-24T11:20:12;6.67;;;2.63;;
9771;SDS011;4925;52.588;13.370;2023-05-24T11:22:33;9.43;;;4.37;;
9771;SDS011;4925;52.588;13.370;2023-05-24T11:24:59;10.43;;;4.07;;
9771;SDS011;4925;52.588;13.370;2023-05-24T11:27:29;6.60;;;2.87;;
9771;SDS011;4925;52.588;13.370;2023-05-24T11:29:59;8.87;;;3.30;;
9771;SDS011;4925;52.588;13.370;2023-05-24T11:32:26;8.10;;;2.87;;
9771;SDS011;4925;52.588;13.370;2023-05-24T11:34:52;7.22;;;2.90;;
9771;SDS011;4925;52.588;13.370;2023-05-24T11:37:17;7.57;;;2.40;;
9771;SDS011;4925;52.588;13.370;2023-05-24T11:39:47;7.55;;;2.65;;
9771;SDS011;4925;52.588;13.370;2023-05-24T11:42:14;6.55;;;2.83;;
9771;SDS011;4925;52.588;13.370;2023-05-24T11:44:40;5.45;;;2.60;;
9771;SDS011;4925;52.588;13.370;2023-05-24T11:47:06;6.88;;;2.92;;
9771;SDS011;4925;52.588;13.370;2023-05-24T11:49:32;8.52;;;3.25;;
9771;SDS011;4925;52.588;13.370;2023-05-24T11:51:59;9.93;;;2.72;;
9771;SDS011;4925;52.588;13.370;2023-05-24T11:54:25;7.60;;;2.67;;
9771;SDS011;4925;52.588;13.370;2023-05-24T11:56:52;6.53;;;2.78;;
9771;SDS011;4925;52.588;13.370;2023-05-24T11:59:25;7.63;;;2.67;;
9771;SDS011;4925;52.588;13.370;2023-05-24T12:01:59;9.18;;;3.10;;
9771;SDS011;4925;52.588;13.370;2023-05-24T12:04:27;5.18;;;2.70;;
9771;SDS011;4925;52.588;13.370;2023-05-24T12:06:53;8.00;;;3.03;;
9771;SDS011;4925;52.588;13.370;2023-05-24T12:09:19;5.13;;;2.80;;
9771;SDS011;4925;52.588;13.370;2023-05-24T12:11:46;7.63;;;2.95;;
9771;SDS011;4925;52.588;13.370;2023-05-24T12:14:14;8.10;;;3.17;;
9771;SDS011;4925;52.588;13.370;2023-05-24T12:16:42;5.32;;;2.75;;
9771;SDS011;4925;52.588;13.370;2023-05-24T12:19:18;6.43;;;2.30;;
9771;SDS011;4925;52.588;13.370;2023-05-24T12:21:45;8.65;;;2.88;;
9771;SDS011;4925;52.588;13.370;2023-05-24T12:24:15;8.90;;;2.92;;
9771;SDS011;4925;52.588;13.370;2023-05-24T12:26:44;7.07;;;2.83;;
9771;SDS011;4925;52.588;13.370;2023-05-24T12:29:11;7.25;;;2.72;;
9771;SDS011;4925;52.588;13.370;2023-05-24T12:31:41;13.85;;;7.57;;
9771;SDS011;4925;52.588;13.370;2023-05-24T12:34:13;8.25;;;5.18;;
9771;SDS011;4925;52.588;13.370;2023-05-24T12:36:40;9.68;;;4.25;;
9771;SDS011;4925;52.588;13.370;2023-05-24T12:39:17;5.57;;;2.60;;
9771;SDS011;4925;52.588;13.370;2023-05-24T12:42:01;8.18;;;3.05;;
9771;SDS011;4925;52.588;13.370;2023-05-24T12:44:33;7.45;;;3.25;;
9771;SDS011;4925;52.588;13.370;2023-05-24T12:47:00;7.05;;;3.05;;
9771;SDS011;4925;52.588;13.370;2023-05-24T12:49:27;10.20;;;3.15;;
9771;SDS011;4925;52.588;13.370;2023-05-24T12:51:54;9.20;;;3.20;;
9771;SDS011;4925;52.588;13.370;2023-05-24T12:54:21;10.82;;;3.10;;
9771;SDS011;4925;52.588;13.370;2023-05-24T12:56:48;7.50;;;2.92;;
9771;SDS011;4925;52.588;13.370;2023-05-24T12:59:15;6.70;;;2.97;;
9771;SDS011;4925;52.588;13.370;2023-05-24T13:01:41;8.10;;;3.15;;
9771;SDS011;4925;52.588;13.370;2023-05-24T13:04:07;7.78;;;3.45;;
9771;SDS011;4925;52.588;13.370;2023-05-24T13:06:35;8.13;;;3.10;;
9771;SDS011;4925;52.588;13.370;2023-05-24T13:09:01;9.63;;;3.58;;
9771;SDS011;4925;52.588;13.370;2023-05-24T13:11:28;9.02;;;3.22;;
9771;SDS011;4925;52.588;13.370;2023-05-24T13:13:55;7.80;;;3.28;;
9771;SDS011;4925;52.588;13.370;2023-05-24T13:16:21;6.72;;;3.45;;
9771;SDS011;4925;52.588;13.370;2023-05-24T13:18:47;9.57;;;3.10;;
9771;SDS011;4925;52.588;13.370;2023-05-24T13:21:14;8.98;;;3.78;;
9771;SDS011;4925;52.588;13.370;2023-05-24T13:23:41;6.07;;;2.72;;
9771;SDS011;4925;52.588;13.370;2023-05-24T13:26:07;8.75;;;3.35;;
9771;SDS011;4925;52.588;13.370;2023-05-24T13:28:33;7.07;;;3.58;;
9771;SDS011;4925;52.588;13.370;2023-05-24T13:30:59;5.90;;;3.15;;
9771;SDS011;4925;52.588;13.370;2023-05-24T13:33:28;7.55;;;3.75;;
9771;SDS011;4925;52.588;13.370;2023-05-24T13:35:55;5.72;;;2.80;;
9771;SDS011;4925;52.588;13.370;2023-05-24T13:38:21;9.55;;;2.95;;
9771;SDS011;4925;52.588;13.370;2023-05-24T13:40:47;6.53;;;3.15;;
9771;SDS011;4925;52.588;13.370;2023-05-24T13:43:13;7.13;;;3.13;;
9771;SDS011;4925;52.588;13.370;2023-05-24T13:45:39;6.78;;;3.25;;
9771;SDS011;4925;52.588;13.370;2023-05-24T13:48:07;7.82;;;3.53;;
9771;SDS011;4925;52.588;13.370;2023-05-24T13:50:33;9.68;;;4.20;;
9771;SDS011;4925;52.588;13.370;2023-05-24T13:53:00;8.68;;;3.20;;
9771;SDS011;4925;52.588;13.370;2023-05-24T13:55:27;8.43;;;3.53;;
9771;SDS011;4925;52.588;13.370;2023-05-24T13:57:54;8.25;;;3.20;;
9771;SDS011;4925;52.588;13.370;2023-05-24T14:00:21;8.68;;;2.95;;
9771;SDS011;4925;52.588;13.370;2023-05-24T14:02:48;5.43;;;2.70;;
9771;SDS011;4925;52.588;13.370;2023-05-24T14:05:13;9.85;;;3.65;;
9771;SDS011;4925;52.588;13.370;2023-05-24T14:07:39;13.57;;;2.88;;
9771;SDS011;4925;52.588;13.370;2023-05-24T14:10:05;6.95;;;3.15;;
9771;SDS011;4925;52.588;13.370;2023-05-24T14:12:32;7.10;;;2.97;;
9771;SDS011;4925;52.588;13.370;2023-05-24T14:14:57;20.65;;;14.57;;
9771;SDS011;4925;52.588;13.370;2023-05-24T14:17:23;7.05;;;3.20;;
9771;SDS011;4925;52.588;13.370;2023-05-24T14:19:49;9.52;;;6.25;;
9771;SDS011;4925;52.588;13.370;2023-05-24T14:22:15;9.98;;;3.83;;
9771;SDS011;4925;52.588;13.370;2023-05-24T14:24:41;5.95;;;2.67;;
9771;SDS011;4925;52.588;13.370;2023-05-24T14:27:07;8.70;;;3.42;;
9771;SDS011;4925;52.588;13.370;2023-05-24T14:29:32;7.88;;;3.17;;
9771;SDS011;4925;52.588;13.370;2023-05-24T14:31:58;6.25;;;3.50;;
9771;SDS011;4925;52.588;13.370;2023-05-24T14:34:24;8.63;;;3.67;;
9771;SDS011;4925;52.588;13.370;2023-05-24T14:36:49;8.45;;;3.60;;
9771;SDS011;4925;52.588;13.370;2023-05-24T14:39:15;7.75;;;3.10;;
9771;SDS011;4925;52.588;13.370;2023-05-24T14:41:41;6.38;;;3.38;;
9771;SDS011;4925;52.588;13.370;2023-05-24T14:44:06;6.00;;;2.97;;
9771;SDS011;4925;52.588;13.370;2023-05-24T14:46:32;7.88;;;3.45;;
9771;SDS011;4925;52.588;13.370;2023-05-24T14:48:58;8.65;;;2.97;;
9771;SDS011;4925;52.588;13.370;2023-05-24T14:51:23;8.25;;;3.28;;
9771;SDS011;4925;52.588;13.370;2023-05-24T14:53:49;7.90;;;3.00;;
9771;SDS011;4925;52.588;13.370;2023-05-24T14:56:15;8.05;;;3.55;;
9771;SDS011;4925;52.588;13.370;2023-05-24T14:58:41;7.95;;;3.30;;
9771;SDS011;4925;52.588;13.370;2023-05-24T15:01:06;9.07;;;3.22;;
9771;SDS011;4925;52.588;13.370;2023-05-24T15:03:32;7.50;;;3.67;;
9771;SDS011;4925;52.588;13.370;2023-05-24T15:05:59;7.07;;;3.20;;
9771;SDS011;4925;52.588;13.370;2023-05-24T15:08:25;8.25;;;3.55;;
9771;SDS011;4925;52.588;13.370;2023-05-24T15:10:51;10.15;;;3.63;;
9771;SDS011;4925;52.588;13.370;2023-05-24T15:13:17;6.20;;;2.72;;
9771;SDS011;4925;52.588;13.370;2023-05-24T15:15:43;7.55;;;3.03;;
9771;SDS011;4925;52.588;13.370;2023-05-24T15:18:09;6.20;;;3.65;;
9771;SDS011;4925;52.588;13.370;2023-05-24T15:20:34;8.10;;;3.10;;
9771;SDS011;4925;52.588;13.370;2023-05-24T15:23:01;5.93;;;2.85;;